ilmateenistus.ee keskkonnaagentuur.ee
EETN Tallinna lennuväli
FTEO31 EETN 212300
TAF EETN 212330Z 2200/2224 31015G25KT CAVOK TEMPO 2200/2210
    32020G35KT PROB30 TEMPO 2200/2203 BKN015 BECMG 2214/2216 28005KT=

METAR EETN 220150Z 30013KT CAVOK 02/M04 Q1018 R08/290195 =
Tallinna lennuväli
EEKA Kärdla lennuväli
METAR EEKA 220150Z NIL=
Kärdla lennuväli
EEKE Kuressaare lennuväli
METAR EEKE 220150Z AUTO 33011KT 300V020 9999NDV NSC 04/M02 Q1023=
Kuressaare lennuväli
EEPU Pärnu lennuväli
METAR EEPU 220150Z NIL=
Pärnu lennuväli
EETU Tartu lennuväli
FCEO32 EETN 220100 AAA
TAF AMD EETU 212100Z 2122/2204 CNL=

METAR EETU 220150Z AUTO 30013KT 9999 BKN100/// 03/00 Q1015=
Tartu lennuväli
EEEI Ämari lennuväli
METAR EEEI 220150Z 30011KT CAVOK 02/M03 Q1019 R24/290095=
Ämari lennuväli

Uudised

Lisainfo 24h: 666 0932 aviamet@envir.ee